createdAt,value
2018-12-12T00:00:20.839Z,7.03
2018-12-12T00:02:54.748Z,5.87
2018-12-12T00:05:28.721Z,7.50
2018-12-12T00:08:02.785Z,6.60
2018-12-12T00:10:36.847Z,7.00
2018-12-12T00:13:10.775Z,6.47
2018-12-12T00:15:44.752Z,7.00
2018-12-12T00:18:18.872Z,7.77
2018-12-12T00:20:52.835Z,7.60
2018-12-12T00:23:26.727Z,7.27
2018-12-12T00:26:00.604Z,7.40
2018-12-12T00:28:34.565Z,6.77
2018-12-12T00:31:08.454Z,7.27
2018-12-12T00:33:42.497Z,7.33
2018-12-12T00:36:16.359Z,8.00
2018-12-12T00:38:50.418Z,6.47
2018-12-12T00:41:24.476Z,6.27
2018-12-12T00:43:58.396Z,7.70
2018-12-12T00:46:32.857Z,8.90
2018-12-12T00:49:06.832Z,7.97
2018-12-12T00:51:40.840Z,8.40
2018-12-12T00:54:14.758Z,6.43
2018-12-12T00:56:48.587Z,7.00
2018-12-12T00:59:22.650Z,8.80
2018-12-12T01:01:56.758Z,6.93
2018-12-12T01:04:30.691Z,8.60
2018-12-12T01:07:04.619Z,6.70
2018-12-12T01:09:38.597Z,6.80
2018-12-12T01:12:13.691Z,7.03
2018-12-12T01:14:47.551Z,8.47
2018-12-12T01:17:21.580Z,8.10
2018-12-12T01:19:55.607Z,6.70
2018-12-12T01:22:29.580Z,7.57
2018-12-12T01:25:03.480Z,7.10
2018-12-12T01:27:37.509Z,6.77
2018-12-12T01:30:11.547Z,7.33
2018-12-12T01:32:45.609Z,6.93
2018-12-12T01:35:19.539Z,7.37
2018-12-12T01:37:53.447Z,6.90
2018-12-12T01:40:27.450Z,7.03
2018-12-12T01:43:01.585Z,5.40
2018-12-12T01:45:35.552Z,7.20
2018-12-12T01:48:09.679Z,9.90
2018-12-12T01:50:43.530Z,6.57
2018-12-12T01:53:17.519Z,7.93
2018-12-12T01:55:51.342Z,7.73
2018-12-12T01:58:25.390Z,6.60
2018-12-12T02:00:59.264Z,7.03
2018-12-12T02:03:33.247Z,6.97
2018-12-12T02:06:07.259Z,6.60
2018-12-12T02:08:41.277Z,7.53
2018-12-12T02:11:15.281Z,7.67
2018-12-12T02:13:49.200Z,6.77
2018-12-12T02:16:23.711Z,6.77
2018-12-12T02:18:57.833Z,7.80
2018-12-12T02:21:31.823Z,8.00
2018-12-12T02:24:05.774Z,7.33
2018-12-12T02:26:39.670Z,6.50
2018-12-12T02:29:13.723Z,8.60
2018-12-12T02:31:47.792Z,8.33
2018-12-12T02:34:21.673Z,8.43
2018-12-12T02:36:55.534Z,7.40
2018-12-12T02:39:29.491Z,7.70
2018-12-12T02:42:03.467Z,8.07
2018-12-12T02:44:37.477Z,7.80
2018-12-12T02:47:11.416Z,7.80
2018-12-12T02:49:45.407Z,8.13
2018-12-12T02:52:19.365Z,8.10
2018-12-12T02:54:53.325Z,6.67
2018-12-12T02:57:27.265Z,6.47
2018-12-12T03:00:01.311Z,7.17
2018-12-12T03:02:35.657Z,7.57
2018-12-12T03:05:09.522Z,8.00
2018-12-12T03:07:43.543Z,6.50
2018-12-12T03:10:17.513Z,5.93
2018-12-12T03:12:51.527Z,7.03
2018-12-12T03:15:25.547Z,7.37
2018-12-12T03:17:59.554Z,7.00
2018-12-12T03:20:33.518Z,7.87
2018-12-12T03:23:07.370Z,7.50
2018-12-12T03:25:41.438Z,6.73
2018-12-12T03:28:15.275Z,6.10
2018-12-12T03:30:49.273Z,7.60
2018-12-12T03:33:23.385Z,6.07
2018-12-12T03:35:57.271Z,6.33
2018-12-12T03:38:31.318Z,8.50
2018-12-12T03:41:05.193Z,6.47
2018-12-12T03:43:39.210Z,6.40
2018-12-12T03:46:13.231Z,6.77
2018-12-12T03:48:48.262Z,7.63
2018-12-12T03:51:22.232Z,7.70
2018-12-12T03:53:56.240Z,7.40
2018-12-12T03:56:30.199Z,6.53
2018-12-12T03:59:04.277Z,6.63
2018-12-12T04:01:42.804Z,7.20
2018-12-12T04:04:16.735Z,6.70
2018-12-12T04:06:50.628Z,8.07
2018-12-12T04:09:24.584Z,6.43
2018-12-12T04:11:58.657Z,6.70
2018-12-12T04:14:32.572Z,6.77
2018-12-12T04:17:06.570Z,5.80
2018-12-12T04:19:40.495Z,7.40
2018-12-12T04:22:14.391Z,7.93
2018-12-12T04:24:48.558Z,6.00
2018-12-12T04:27:22.654Z,6.83
2018-12-12T04:29:56.536Z,6.80
2018-12-12T04:32:30.647Z,7.37
2018-12-12T04:35:04.764Z,7.27
2018-12-12T04:37:38.854Z,8.67
2018-12-12T04:40:12.762Z,8.20
2018-12-12T04:42:46.616Z,7.57
2018-12-12T04:45:20.514Z,8.60
2018-12-12T04:47:54.419Z,8.23
2018-12-12T04:50:28.373Z,8.33
2018-12-12T04:53:02.384Z,8.70
2018-12-12T04:55:36.264Z,8.33
2018-12-12T04:58:10.144Z,8.50
2018-12-12T05:00:44.120Z,8.00
2018-12-12T05:03:18.235Z,9.33
2018-12-12T05:05:52.086Z,9.60
2018-12-12T05:08:26.086Z,9.83
2018-12-12T05:11:00.156Z,9.50
2018-12-12T05:13:34.229Z,10.60
2018-12-12T05:16:08.323Z,10.80
2018-12-12T05:18:42.306Z,9.60
2018-12-12T05:21:16.423Z,9.43
2018-12-12T05:23:50.496Z,8.83
2018-12-12T05:26:24.601Z,11.43
2018-12-12T05:28:58.461Z,12.23
2018-12-12T05:31:32.492Z,17.93
2018-12-12T05:34:06.330Z,11.70
2018-12-12T05:36:40.260Z,11.83
2018-12-12T05:39:14.248Z,11.77
2018-12-12T05:41:48.149Z,12.37
2018-12-12T05:44:23.174Z,12.63
2018-12-12T05:46:57.242Z,13.43
2018-12-12T05:49:31.221Z,13.87
2018-12-12T05:52:05.359Z,13.40
2018-12-12T05:54:39.301Z,12.50
2018-12-12T05:57:13.484Z,14.20
2018-12-12T05:59:47.615Z,13.30
2018-12-12T06:02:21.703Z,12.20
2018-12-12T06:04:55.655Z,13.40
2018-12-12T06:07:29.835Z,13.33
2018-12-12T06:10:04.559Z,14.10
2018-12-12T06:12:38.624Z,14.10
2018-12-12T06:15:12.674Z,29.27
2018-12-12T06:17:46.834Z,17.50
2018-12-12T06:20:20.916Z,15.83
2018-12-12T06:22:54.858Z,12.90
2018-12-12T06:25:28.951Z,14.20
2018-12-12T06:28:03.033Z,13.90
2018-12-12T06:30:37.207Z,16.77
2018-12-12T06:33:11.400Z,14.77
2018-12-12T06:35:45.591Z,16.23
2018-12-12T06:38:19.761Z,14.80
2018-12-12T06:40:53.843Z,15.40
2018-12-12T06:43:27.911Z,12.83
2018-12-12T06:46:02.142Z,15.83
2018-12-12T06:48:36.116Z,16.73
2018-12-12T06:51:10.445Z,15.90
2018-12-12T06:53:44.564Z,14.60
2018-12-12T06:56:18.736Z,14.40
2018-12-12T06:58:53.112Z,14.37
2018-12-12T07:01:27.796Z,17.77
2018-12-12T07:04:01.873Z,17.70
2018-12-12T07:06:36.009Z,16.87
2018-12-12T07:09:10.457Z,17.50
2018-12-12T07:11:44.799Z,16.30
2018-12-12T07:14:19.080Z,18.10
2018-12-12T07:16:53.363Z,19.60
2018-12-12T07:19:27.807Z,18.33
2018-12-12T07:22:02.027Z,18.30
2018-12-12T07:24:36.337Z,18.27
2018-12-12T07:27:10.424Z,16.37
2018-12-12T07:29:44.583Z,17.90
2018-12-12T07:32:18.894Z,16.23
2018-12-12T07:34:53.050Z,16.33
2018-12-12T07:37:27.099Z,17.63
2018-12-12T07:40:01.143Z,17.10
2018-12-12T07:42:35.260Z,19.50
2018-12-12T07:45:09.440Z,19.77
2018-12-12T07:47:43.669Z,17.23
2018-12-12T07:50:18.224Z,17.40
2018-12-12T07:52:52.236Z,16.67
2018-12-12T07:55:26.253Z,15.90
2018-12-12T07:58:00.388Z,17.57
2018-12-12T08:00:34.542Z,16.73
2018-12-12T08:03:08.741Z,19.23
2018-12-12T08:05:42.740Z,33.17
2018-12-12T08:08:17.053Z,17.30
2018-12-12T08:10:51.353Z,17.50
2018-12-12T08:13:25.539Z,19.47
2018-12-12T08:16:00.276Z,18.90
2018-12-12T08:18:34.661Z,18.63
2018-12-12T08:21:08.908Z,18.77
2018-12-12T08:23:43.419Z,15.07
2018-12-12T08:26:17.480Z,18.27
2018-12-12T08:28:51.653Z,19.63
2018-12-12T08:31:25.692Z,20.07
2018-12-12T08:33:59.703Z,19.50
2018-12-12T08:36:33.924Z,18.83
2018-12-12T08:39:08.223Z,19.30
2018-12-12T08:41:42.805Z,17.70
2018-12-12T08:44:16.979Z,16.70
2018-12-12T08:46:51.319Z,19.67
2018-12-12T08:49:25.508Z,18.10
2018-12-12T08:51:59.561Z,18.80
2018-12-12T08:54:33.518Z,19.17
2018-12-12T08:57:07.827Z,19.23
2018-12-12T08:59:42.176Z,20.13
2018-12-12T09:02:16.469Z,19.60
2018-12-12T09:04:50.997Z,17.73
2018-12-12T09:07:25.047Z,18.30
2018-12-12T09:09:59.122Z,20.40
2018-12-12T09:12:33.261Z,19.47
2018-12-12T09:15:07.615Z,18.80
